EKCHESMK

Guest
Details From EKCH - Kastrup
To ESMK - Kristianstad
Flight Number -
Tags generated
Created
Modified
Stats Distance 54 nm / 99 km
Max Altitude 6,300 ft / 1,920 m
Waypoints 3
Social Downloads 1
Likes 0
Share VATSIM

Download

Looking for another format? Having issues loading an existing format? Contact us
Advertisement - Login to hide

Notes

Basic altitude profile: - Ascent Rate: 2500ft/min - Ascent Speed: 250kts - Cruise Altitude: 35000ft - Cruise Speed: 420kts - Descent Rate: 1500ft/min - Descent Speed: 250kts Options: - Use NATs: yes - Use PACOTS: yes - Use low airways: yes - Use high airways: yes

Route

EKCH GORAX ESMK

ID Type Via Altitude Latitude Longitude Leg Dist Tot Dist Heading (true) Name
O EKCH APT - 0 ft / 0 m 55.61291˚ 12.64096˚ - 0 nm - Kastrup
GORAX FIX - 6,300 ft / 1,920 m 55.80611˚ 13.04056˚ 17 nm 17 nm 49° / 50° -
O ESMK APT - 0 ft / 0 m 55.92169˚ 14.08553˚ 35 nm 53 nm 78° / 79° Kristianstad

Altitude Profile

Advertisement - Login to hide

EKCH

Details ICAO EKCH (CPH)
Name Kastrup
Region Denmark / Faroe Islands
Timezone Europe/Copenhagen (UTC+1.0)
Stats Elevation 17 ft / 5 m (AMSL)
Location 55.612915° 12.640961°
Runways 3
Magnetic Variation 3.723° E

METAR

EKCH 120820Z 33007KT 9999 -RASN OVC006 01/01 Q0987 TEMPO 3000 BKN004

Decode

TAF

TAF EKCH 120530Z 1206/1306 05010KT 9999 BKN008 TEMPO 1206/1210 2000 RASN BKN004 BECMG 1210/1213 31012KT SCT030 BECMG 1218/1221 25012KT TEMPO 1300/1306 22015G30KT BKN012

Decode

Departure Runways

ID Width Length Bearing (true) Bearing (mag) Surface Threshold Offset Overrun Length
04L 148 ft / 45 m 11,848 ft / 3,611 m 41.15° 37.43° Asphalt 0 ft / 0 m 0 ft / 0 m
04R 148 ft / 45 m 10,814 ft / 3,296 m 41.15° 37.43° Asphalt 0 ft / 0 m 0 ft / 0 m
12 148 ft / 45 m 10,047 ft / 3,063 m 123.21° 119.49° Asphalt 2,313 ft / 705 m 0 ft / 0 m
22L 148 ft / 45 m 10,814 ft / 3,296 m 221.17° 217.45° Asphalt 0 ft / 0 m 0 ft / 0 m
22R 148 ft / 45 m 11,848 ft / 3,611 m 221.18° 217.46° Asphalt 2,018 ft / 615 m 0 ft / 0 m
30 148 ft / 45 m 10,047 ft / 3,063 m 303.25° 299.53° Asphalt 886 ft / 270 m 0 ft / 0 m

ESMK

Details ICAO ESMK (KID)
Name Kristianstad
Region Sweden
Timezone Europe/Stockholm (UTC+1.0)
Stats Elevation 76 ft / 23 m (AMSL)
Location 55.921686° 14.085535°
Runways 1
Magnetic Variation 4.232° E

METAR

ESMK 120850Z 30006KT 3500 -SN BKN003 01/01 Q0985

Decode

TAF

Not found

Destination Runways

ID Width Length Bearing (true) Bearing (mag) Surface Threshold Offset Overrun Length
01 148 ft / 45 m 7,259 ft / 2,213 m 7.13° 2.90° Asphalt 0 ft / 0 m 0 ft / 0 m
19 148 ft / 45 m 7,259 ft / 2,213 m 187.13° 182.90° Asphalt 0 ft / 0 m 0 ft / 0 m

Approach Navaids

Runway Type Ident Frequency Range Bearing (true) Bearing (mag) Slope Elevation
19 Localiser MK 108.50 MHz 18 nm / 33 km 187.13° 182.90° - 76 ft / 23 m (AMSL)
19 Glidescope MK 108.50 MHz 10 nm / 19 km 187.13° 182.90° 3.25° 76 ft / 23 m (AMSL)